createdAt,value
2023-04-02T00:01:38.374Z,71.60
2023-04-02T00:04:24.175Z,71.60
2023-04-02T00:07:31.145Z,71.50
2023-04-02T00:10:29.524Z,71.60
2023-04-02T00:13:07.796Z,71.40
2023-04-02T00:15:45.486Z,71.60
2023-04-02T00:18:22.682Z,71.40
2023-04-02T00:21:10.526Z,71.40
2023-04-02T00:23:45.349Z,71.40
2023-04-02T00:26:27.070Z,71.40
2023-04-02T00:29:01.759Z,71.50
2023-04-02T00:31:39.573Z,71.50
2023-04-02T00:34:22.463Z,71.50
2023-04-02T00:36:58.401Z,71.40
2023-04-02T00:39:39.946Z,71.40
2023-04-02T00:42:14.850Z,71.40
2023-04-02T00:44:50.887Z,71.40
2023-04-02T00:47:32.740Z,71.30
2023-04-02T00:50:22.551Z,71.30
2023-04-02T00:53:00.809Z,71.20
2023-04-02T00:55:39.425Z,71.10
2023-04-02T00:58:29.982Z,71.00
2023-04-02T01:01:04.627Z,70.90
2023-04-02T01:03:39.081Z,71.00
2023-04-02T01:06:18.818Z,70.80
2023-04-02T01:09:26.562Z,70.90
2023-04-02T01:12:38.696Z,70.90
2023-04-02T01:15:21.248Z,70.70
2023-04-02T01:18:18.718Z,70.70
2023-04-02T01:21:16.168Z,70.80
2023-04-02T01:24:10.616Z,70.90
2023-04-02T01:27:01.156Z,71.00
2023-04-02T01:29:41.396Z,71.00
2023-04-02T01:32:21.158Z,71.00
2023-04-02T01:34:55.352Z,71.00
2023-04-02T01:37:40.569Z,70.90
2023-04-02T01:40:35.804Z,70.80
2023-04-02T01:43:21.432Z,70.70
2023-04-02T01:45:59.128Z,70.70
2023-04-02T01:48:33.715Z,70.60
2023-04-02T01:51:09.506Z,70.70
2023-04-02T01:53:43.141Z,70.70
2023-04-02T01:56:17.905Z,70.70
2023-04-02T01:58:51.925Z,70.80
2023-04-02T02:01:34.053Z,70.60
2023-04-02T02:04:12.068Z,70.70
2023-04-02T02:06:48.834Z,70.80
2023-04-02T02:09:28.478Z,70.80
2023-04-02T02:12:04.610Z,70.90
2023-04-02T02:14:38.301Z,70.90
2023-04-02T02:17:17.756Z,71.70
2023-04-02T02:19:57.507Z,71.10
2023-04-02T02:22:35.416Z,71.00
2023-04-02T02:25:17.256Z,71.00
2023-04-02T02:28:02.573Z,71.00
2023-04-02T02:30:40.438Z,70.90
2023-04-02T02:33:21.543Z,70.90
2023-04-02T02:36:00.726Z,70.80
2023-04-02T02:38:54.255Z,70.70
2023-04-02T02:41:36.974Z,70.80
2023-04-02T02:44:18.697Z,70.70
2023-04-02T02:46:57.904Z,70.60
2023-04-02T02:49:41.874Z,70.60
2023-04-02T02:52:20.380Z,70.70
2023-04-02T02:54:59.060Z,70.80
2023-04-02T02:57:37.880Z,70.70
2023-04-02T03:00:16.325Z,70.70
2023-04-02T03:02:50.849Z,70.60
2023-04-02T03:05:29.709Z,70.60
2023-04-02T03:08:08.217Z,70.60
2023-04-02T03:10:53.980Z,70.70
2023-04-02T03:13:35.801Z,70.70
2023-04-02T03:16:18.091Z,70.70
2023-04-02T03:18:59.522Z,70.70
2023-04-02T03:21:49.020Z,70.80
2023-04-02T03:24:34.230Z,70.80
2023-04-02T03:27:17.000Z,70.70
2023-04-02T03:30:05.466Z,70.70
2023-04-02T03:32:44.194Z,70.70
2023-04-02T03:35:27.649Z,70.70
2023-04-02T03:38:09.060Z,70.70
2023-04-02T03:40:51.854Z,70.70
2023-04-02T03:43:30.799Z,70.50
2023-04-02T03:46:23.593Z,70.50
2023-04-02T03:49:01.702Z,70.50
2023-04-02T03:51:40.974Z,70.30
2023-04-02T03:54:19.370Z,70.40
2023-04-02T03:56:55.511Z,70.30
2023-04-02T03:59:40.263Z,70.40
2023-04-02T04:02:34.846Z,70.40
2023-04-02T04:05:22.925Z,70.40
2023-04-02T04:08:03.535Z,70.40
2023-04-02T04:10:38.873Z,70.30
2023-04-02T04:13:19.311Z,70.30
2023-04-02T04:16:01.623Z,70.40
2023-04-02T04:18:45.345Z,70.40
2023-04-02T04:21:30.339Z,70.40
2023-04-02T04:24:06.902Z,70.30
2023-04-02T04:26:49.777Z,70.30
2023-04-02T04:29:40.888Z,70.20
2023-04-02T04:32:27.850Z,70.20
2023-04-02T04:35:08.548Z,70.30
2023-04-02T04:37:49.828Z,70.40
2023-04-02T04:40:29.690Z,70.30
2023-04-02T04:43:11.787Z,70.20
2023-04-02T04:45:52.298Z,70.20
2023-04-02T04:48:36.309Z,70.20
2023-04-02T04:51:21.132Z,70.30
2023-04-02T04:53:56.805Z,70.40
2023-04-02T04:56:33.450Z,70.40
2023-04-02T04:59:20.714Z,70.40
2023-04-02T05:02:04.445Z,70.30
2023-04-02T05:04:41.919Z,70.10
2023-04-02T05:07:20.522Z,70.10
2023-04-02T05:10:01.055Z,70.00
2023-04-02T05:12:42.088Z,70.20
2023-04-02T05:15:26.130Z,70.20
2023-04-02T05:18:22.396Z,70.20
2023-04-02T05:21:07.112Z,70.30
2023-04-02T05:23:52.367Z,70.30
2023-04-02T05:26:33.865Z,70.20
2023-04-02T05:29:18.100Z,70.20
2023-04-02T05:32:02.539Z,70.10
2023-04-02T05:34:39.818Z,70.20
2023-04-02T05:37:19.020Z,70.20
2023-04-02T05:39:57.706Z,70.10
2023-04-02T05:42:36.974Z,70.10
2023-04-02T05:45:25.349Z,70.00
2023-04-02T05:48:07.946Z,70.00
2023-04-02T05:50:46.704Z,70.00
2023-04-02T05:53:27.280Z,70.00
2023-04-02T05:56:07.244Z,69.90
2023-04-02T05:58:47.945Z,69.80
2023-04-02T06:01:40.359Z,69.90
2023-04-02T06:04:27.233Z,69.90
2023-04-02T06:07:08.592Z,69.90
2023-04-02T06:09:49.532Z,69.90
2023-04-02T06:12:32.263Z,69.90
2023-04-02T06:15:07.454Z,69.90
2023-04-02T06:17:48.865Z,69.80
2023-04-02T06:20:24.173Z,69.70
2023-04-02T06:23:04.879Z,69.60
2023-04-02T06:25:45.000Z,69.60
2023-04-02T06:28:27.037Z,69.60
2023-04-02T06:31:09.282Z,69.60
2023-04-02T06:33:43.223Z,69.60
2023-04-02T06:36:18.329Z,69.70
2023-04-02T06:38:55.959Z,69.70
2023-04-02T06:41:29.644Z,69.80
2023-04-02T06:44:11.508Z,69.80
2023-04-02T06:46:52.577Z,69.90
2023-04-02T06:49:35.859Z,69.90
2023-04-02T06:52:21.987Z,69.80
2023-04-02T06:54:55.891Z,69.70
2023-04-02T06:57:33.089Z,69.80
2023-04-02T07:00:21.944Z,70.40
2023-04-02T07:02:57.797Z,69.90
2023-04-02T07:05:31.966Z,69.90
2023-04-02T07:08:08.149Z,69.90
2023-04-02T07:10:41.690Z,69.90
2023-04-02T07:13:19.286Z,69.80
2023-04-02T07:15:56.597Z,70.70
2023-04-02T07:18:33.548Z,70.00
2023-04-02T07:21:07.540Z,70.10
2023-04-02T07:23:42.891Z,70.10
2023-04-02T07:26:19.922Z,70.10
2023-04-02T07:28:53.627Z,70.20
2023-04-02T07:31:29.511Z,70.00
2023-04-02T07:34:03.409Z,70.00
2023-04-02T07:36:38.035Z,70.00
2023-04-02T07:39:14.012Z,70.00
2023-04-02T07:41:55.386Z,69.90
2023-04-02T07:44:29.279Z,69.90
2023-04-02T07:47:03.008Z,69.80
2023-04-02T07:49:36.462Z,69.60
2023-04-02T07:52:10.051Z,69.80
2023-04-02T07:54:45.496Z,69.90
2023-04-02T07:57:18.997Z,69.90
2023-04-02T07:59:53.418Z,69.90
2023-04-02T08:02:27.818Z,69.80
2023-04-02T08:05:02.158Z,69.70
2023-04-02T08:07:36.040Z,69.60
2023-04-02T08:10:14.119Z,69.60
2023-04-02T08:12:47.724Z,69.50
2023-04-02T08:15:21.428Z,69.50
2023-04-02T08:17:55.157Z,69.50
2023-04-02T08:20:29.047Z,69.40
2023-04-02T08:23:17.892Z,69.30
2023-04-02T08:25:53.920Z,69.00
2023-04-02T08:28:29.749Z,69.10
2023-04-02T08:31:04.818Z,69.00
2023-04-02T08:33:38.480Z,69.00
2023-04-02T08:36:18.250Z,68.80
2023-04-02T08:38:51.871Z,68.80
2023-04-02T08:41:28.841Z,68.70
2023-04-02T08:44:29.140Z,68.80
2023-04-02T08:47:07.264Z,68.90
2023-04-02T08:49:50.910Z,69.00
2023-04-02T08:52:28.709Z,69.00
2023-04-02T08:55:04.160Z,69.10
2023-04-02T08:57:51.544Z,70.10
2023-04-02T09:00:36.789Z,69.00
2023-04-02T09:03:18.569Z,69.10
2023-04-02T09:05:54.044Z,68.90
2023-04-02T09:08:32.178Z,68.80
2023-04-02T09:11:20.426Z,68.70
2023-04-02T09:14:25.170Z,68.30
2023-04-02T09:17:05.118Z,68.10
2023-04-02T09:19:42.901Z,68.20
2023-04-02T09:22:24.482Z,69.00
2023-04-02T09:25:01.327Z,68.20
2023-04-02T09:27:38.253Z,68.30
2023-04-02T09:30:32.802Z,68.40
2023-04-02T09:33:08.073Z,68.40
2023-04-02T09:35:58.912Z,68.40
2023-04-02T09:38:33.202Z,68.10
2023-04-02T09:41:20.036Z,68.10
2023-04-02T09:44:24.603Z,67.70
2023-04-02T09:47:04.111Z,67.50
2023-04-02T09:49:40.884Z,67.40
2023-04-02T09:52:28.940Z,67.40
2023-04-02T09:55:23.240Z,67.20
2023-04-02T09:58:16.265Z,67.20
2023-04-02T10:00:55.997Z,67.20
2023-04-02T10:03:34.400Z,67.30
2023-04-02T10:06:11.973Z,67.10
2023-04-02T10:08:47.563Z,67.20
2023-04-02T10:11:36.566Z,67.00
2023-04-02T10:14:22.281Z,66.90
2023-04-02T10:17:01.295Z,66.80
2023-04-02T10:19:39.958Z,66.80
2023-04-02T10:22:18.876Z,66.70
2023-04-02T10:24:53.449Z,66.80
2023-04-02T10:27:37.755Z,66.80
2023-04-02T10:30:23.869Z,66.90
2023-04-02T10:33:04.610Z,66.80
2023-04-02T10:35:53.695Z,66.60
2023-04-02T10:38:42.951Z,66.50
2023-04-02T10:41:38.882Z,66.40
2023-04-02T10:44:37.154Z,66.00
2023-04-02T10:47:29.104Z,66.10
2023-04-02T10:50:29.554Z,66.20
2023-04-02T10:53:16.356Z,66.10
2023-04-02T10:55:57.907Z,65.90
2023-04-02T10:58:39.227Z,66.00
2023-04-02T11:01:22.222Z,66.20
2023-04-02T11:04:02.696Z,66.20
2023-04-02T11:06:47.853Z,66.10
2023-04-02T11:09:29.748Z,65.80
2023-04-02T11:12:06.698Z,66.10
2023-04-02T11:14:41.077Z,66.20
2023-04-02T11:17:17.777Z,65.90
2023-04-02T11:19:51.800Z,65.90
2023-04-02T11:22:27.712Z,65.80
2023-04-02T11:25:04.431Z,65.70
2023-04-02T11:27:38.733Z,65.60
2023-04-02T11:30:27.490Z,65.40
2023-04-02T11:33:44.273Z,65.00
2023-04-02T11:37:01.550Z,64.90
2023-04-02T11:39:53.695Z,65.20
2023-04-02T11:42:34.337Z,65.00
2023-04-02T11:45:55.519Z,64.90
2023-04-02T11:48:34.206Z,64.20
2023-04-02T11:51:42.806Z,64.40
2023-04-02T11:54:41.711Z,64.30
2023-04-02T11:57:42.774Z,64.30
2023-04-02T12:01:11.828Z,64.10
2023-04-02T12:04:26.046Z,63.90
2023-04-02T12:07:26.943Z,63.80
2023-04-02T12:10:04.779Z,63.90
2023-04-02T12:12:40.946Z,63.80
2023-04-02T12:15:41.076Z,63.90
2023-04-02T12:18:18.692Z,63.40
2023-04-02T12:20:55.100Z,63.70
2023-04-02T12:23:32.477Z,63.60
2023-04-02T12:26:09.256Z,63.50
2023-04-02T12:28:46.721Z,63.20
2023-04-02T12:31:26.056Z,63.00
2023-04-02T12:33:59.727Z,62.90
2023-04-02T12:36:34.802Z,62.90
2023-04-02T12:39:18.838Z,62.70
2023-04-02T12:41:52.841Z,62.30
2023-04-02T12:44:29.484Z,62.30
2023-04-02T12:47:06.695Z,62.10
2023-04-02T12:49:44.472Z,61.90
2023-04-02T12:52:21.916Z,62.10
2023-04-02T12:54:59.301Z,62.00
2023-04-02T12:57:42.415Z,62.00
2023-04-02T13:00:37.345Z,61.60
2023-04-02T13:03:22.279Z,61.60
2023-04-02T13:05:58.497Z,61.90
2023-04-02T13:08:40.804Z,62.00
2023-04-02T13:11:14.584Z,62.30
2023-04-02T13:13:50.141Z,62.30
2023-04-02T13:16:35.917Z,62.00
2023-04-02T13:19:31.864Z,61.70
2023-04-02T13:22:32.950Z,61.50
2023-04-02T13:25:07.602Z,61.60
2023-04-02T13:27:41.178Z,61.40
2023-04-02T13:30:25.880Z,61.40
2023-04-02T13:33:00.135Z,61.10
2023-04-02T13:35:34.683Z,61.50
2023-04-02T13:38:09.877Z,61.60
2023-04-02T13:40:43.684Z,61.70
2023-04-02T13:43:20.343Z,61.50
2023-04-02T13:45:57.259Z,61.50
2023-04-02T13:48:31.216Z,61.40
2023-04-02T13:51:06.053Z,60.90
2023-04-02T13:53:40.983Z,60.80
2023-04-02T13:56:15.892Z,60.50
2023-04-02T13:58:50.194Z,60.60
2023-04-02T14:01:27.516Z,60.80
2023-04-02T14:04:01.818Z,61.10
2023-04-02T14:07:16.084Z,60.90
2023-04-02T14:10:06.489Z,60.20
2023-04-02T14:13:00.018Z,59.80
2023-04-02T14:15:55.047Z,59.60
2023-04-02T14:18:58.076Z,59.40
2023-04-02T14:21:49.978Z,59.10
2023-04-02T14:24:37.602Z,59.10
2023-04-02T14:27:27.625Z,59.10
2023-04-02T14:30:11.942Z,59.00
2023-04-02T14:32:57.103Z,59.20
2023-04-02T14:35:37.114Z,59.40
2023-04-02T14:38:21.878Z,59.60
2023-04-02T14:41:05.320Z,59.50
2023-04-02T14:43:47.646Z,59.60
2023-04-02T14:46:25.449Z,59.40
2023-04-02T14:49:07.740Z,59.10
2023-04-02T14:51:50.128Z,58.70
2023-04-02T14:54:36.752Z,58.30
2023-04-02T14:57:21.779Z,57.90
2023-04-02T15:00:04.281Z,57.90
2023-04-02T15:02:45.417Z,57.60
2023-04-02T15:05:24.869Z,57.40
2023-04-02T15:08:06.968Z,57.60
2023-04-02T15:10:54.020Z,57.30
2023-04-02T15:13:38.808Z,57.20
2023-04-02T15:16:21.372Z,56.90
2023-04-02T15:19:01.177Z,57.40
2023-04-02T15:24:39.305Z,56.90
2023-04-02T15:27:33.402Z,57.40
2023-04-02T15:30:16.620Z,57.00
2023-04-02T15:32:53.858Z,57.10
2023-04-02T15:35:43.482Z,56.80
2023-04-02T15:38:24.693Z,57.20
2023-04-02T15:41:06.636Z,56.80
2023-04-02T15:43:46.491Z,56.80
2023-04-02T15:46:29.961Z,56.70
2023-04-02T15:49:25.253Z,56.70
2023-04-02T15:52:11.146Z,56.20
2023-04-02T15:55:20.286Z,56.10
2023-04-02T15:58:22.253Z,55.90
2023-04-02T16:01:16.391Z,55.90
2023-04-02T16:04:31.732Z,55.60
2023-04-02T16:07:36.146Z,55.30
2023-04-02T16:10:33.853Z,55.60
2023-04-02T16:13:30.648Z,55.90
2023-04-02T16:16:09.873Z,55.80
2023-04-02T16:18:56.873Z,55.60
2023-04-02T16:21:38.632Z,55.60
2023-04-02T16:24:14.480Z,55.50
2023-04-02T16:26:59.238Z,55.60
2023-04-02T16:29:55.578Z,55.50
2023-04-02T16:32:54.339Z,55.10
2023-04-02T16:35:43.281Z,55.20
2023-04-02T16:38:38.536Z,55.50
2023-04-02T16:41:29.069Z,55.30
2023-04-02T16:44:18.647Z,55.10
2023-04-02T16:47:10.203Z,55.00
2023-04-02T16:49:58.559Z,55.00
2023-04-02T16:52:49.143Z,54.90
2023-04-02T16:55:50.728Z,55.30
2023-04-02T16:58:45.422Z,55.30
2023-04-02T17:01:29.254Z,55.40
2023-04-02T17:04:29.875Z,55.30
2023-04-02T17:07:24.454Z,54.90
2023-04-02T17:10:20.544Z,54.80
2023-04-02T17:13:04.421Z,55.10
2023-04-02T17:15:41.083Z,55.10
2023-04-02T17:18:21.077Z,55.10
2023-04-02T17:20:57.600Z,54.80
2023-04-02T17:23:43.177Z,55.00
2023-04-02T17:26:28.903Z,54.90
2023-04-02T17:29:10.866Z,55.00
2023-04-02T17:31:47.016Z,55.00
2023-04-02T17:34:23.921Z,55.20
2023-04-02T17:37:12.766Z,54.90
2023-04-02T17:40:06.377Z,54.60
2023-04-02T17:42:53.772Z,54.60
2023-04-02T17:45:41.122Z,54.60
2023-04-02T17:48:28.173Z,54.40
2023-04-02T17:51:17.618Z,54.40
2023-04-02T17:54:08.717Z,54.30
2023-04-02T17:57:09.667Z,54.30
2023-04-02T18:00:02.524Z,54.20
2023-04-02T18:02:57.461Z,54.60
2023-04-02T18:05:40.755Z,54.80
2023-04-02T18:08:30.426Z,54.90
2023-04-02T18:11:14.693Z,54.80
2023-04-02T18:13:56.830Z,54.80
2023-04-02T18:16:49.627Z,54.90
2023-04-02T18:19:37.110Z,54.90
2023-04-02T18:22:20.413Z,55.00
2023-04-02T18:25:17.871Z,55.20
2023-04-02T18:28:14.996Z,55.20
2023-04-02T18:30:59.151Z,55.20
2023-04-02T18:34:11.049Z,55.20
2023-04-02T18:37:05.166Z,55.20
2023-04-02T18:39:50.837Z,55.40
2023-04-02T18:42:45.425Z,55.50
2023-04-02T18:45:26.846Z,55.40
2023-04-02T18:48:18.408Z,55.50
2023-04-02T18:50:52.257Z,55.50
2023-04-02T18:53:32.849Z,55.50
2023-04-02T18:56:12.881Z,55.50
2023-04-02T18:58:59.491Z,55.50
2023-04-02T19:01:40.566Z,55.60
2023-04-02T19:04:23.753Z,55.90
2023-04-02T19:07:07.166Z,56.00
2023-04-02T19:09:48.491Z,56.00
2023-04-02T19:12:24.920Z,56.00
2023-04-02T19:15:01.177Z,56.20
2023-04-02T19:17:41.670Z,56.00
2023-04-02T19:20:31.808Z,56.00
2023-04-02T19:23:30.063Z,56.10
2023-04-02T19:26:09.875Z,56.20
2023-04-02T19:29:00.149Z,56.20
2023-04-02T19:31:50.717Z,56.20
2023-04-02T19:34:34.413Z,56.30
2023-04-02T19:37:18.398Z,56.30
2023-04-02T19:40:32.555Z,56.30
2023-04-02T19:43:11.357Z,56.40
2023-04-02T19:45:48.397Z,56.40
2023-04-02T19:48:27.114Z,56.40
2023-04-02T19:51:02.448Z,56.40
2023-04-02T19:53:36.298Z,56.50
2023-04-02T19:56:10.090Z,56.50
2023-04-02T19:58:45.382Z,56.50
2023-04-02T20:01:19.071Z,56.50
2023-04-02T20:03:52.514Z,56.50
2023-04-02T20:06:25.890Z,56.50
2023-04-02T20:09:02.693Z,56.60
2023-04-02T20:11:38.281Z,56.70
2023-04-02T20:14:13.603Z,56.70
2023-04-02T20:16:47.025Z,56.70
2023-04-02T20:19:20.702Z,56.90
2023-04-02T20:21:54.288Z,56.70
2023-04-02T20:24:27.912Z,56.90
2023-04-02T20:27:01.240Z,56.90
2023-04-02T20:29:36.605Z,56.90
2023-04-02T20:32:10.825Z,56.90
2023-04-02T20:34:45.834Z,57.00
2023-04-02T20:37:19.726Z,57.10
2023-04-02T20:39:53.432Z,57.00
2023-04-02T20:42:30.471Z,57.20
2023-04-02T20:45:07.860Z,57.10
2023-04-02T20:47:41.919Z,57.20
2023-04-02T20:50:15.782Z,57.20
2023-04-02T20:52:50.811Z,57.20
2023-04-02T20:55:24.842Z,57.20
2023-04-02T20:57:58.872Z,57.30
2023-04-02T21:00:36.616Z,57.30
2023-04-02T21:03:11.389Z,57.30
2023-04-02T21:05:46.129Z,57.30
2023-04-02T21:08:21.259Z,57.40
2023-04-02T21:10:55.617Z,57.60
2023-04-02T21:13:31.823Z,57.50
2023-04-02T21:16:15.310Z,57.60
2023-04-02T21:18:52.836Z,57.70
2023-04-02T21:21:27.534Z,57.80
2023-04-02T21:24:03.923Z,57.80
2023-04-02T21:26:41.347Z,57.80
2023-04-02T21:29:15.575Z,57.90
2023-04-02T21:31:50.435Z,57.80
2023-04-02T21:34:24.103Z,57.90
2023-04-02T21:36:57.982Z,58.00
2023-04-02T21:39:31.560Z,58.00
2023-04-02T21:42:06.017Z,58.00
2023-04-02T21:44:40.040Z,58.20
2023-04-02T21:47:15.255Z,58.20
2023-04-02T21:49:49.170Z,58.30
2023-04-02T21:52:23.399Z,58.20
2023-04-02T21:54:57.139Z,58.30
2023-04-02T21:57:30.871Z,58.30
2023-04-02T22:00:08.976Z,58.50
2023-04-02T22:02:44.391Z,58.60
2023-04-02T22:05:18.185Z,58.60
2023-04-02T22:07:52.287Z,58.70
2023-04-02T22:10:26.248Z,58.70
2023-04-02T22:12:59.874Z,58.80
2023-04-02T22:15:34.688Z,58.70
2023-04-02T22:18:09.770Z,58.70
2023-04-02T22:20:43.638Z,58.70
2023-04-02T22:23:18.917Z,58.80
2023-04-02T22:25:53.489Z,58.90
2023-04-02T22:28:28.241Z,58.90
2023-04-02T22:31:08.425Z,59.00
2023-04-02T22:33:44.965Z,58.90
2023-04-02T22:36:19.800Z,58.90
2023-04-02T22:38:53.732Z,58.90
2023-04-02T22:41:29.769Z,58.80
2023-04-02T22:44:03.715Z,58.90
2023-04-02T22:46:37.471Z,58.90
2023-04-02T22:49:19.220Z,58.80
2023-04-02T22:51:53.703Z,59.40
2023-04-02T22:54:27.182Z,58.90
2023-04-02T22:57:00.901Z,59.10
2023-04-02T22:59:35.849Z,58.90
2023-04-02T23:02:09.475Z,58.90
2023-04-02T23:04:44.630Z,59.00
2023-04-02T23:07:18.632Z,59.00
2023-04-02T23:09:52.640Z,59.00
2023-04-02T23:12:26.212Z,59.00
2023-04-02T23:15:02.356Z,59.10
2023-04-02T23:17:37.728Z,59.10
2023-04-02T23:20:14.385Z,59.10
2023-04-02T23:22:48.249Z,59.20
2023-04-02T23:25:22.267Z,59.10
2023-04-02T23:27:55.715Z,59.20
2023-04-02T23:30:29.568Z,59.30
2023-04-02T23:33:04.678Z,59.30
2023-04-02T23:35:40.788Z,59.30
2023-04-02T23:38:14.320Z,59.30
2023-04-02T23:40:48.494Z,59.30
2023-04-02T23:43:22.618Z,59.40
2023-04-02T23:45:56.662Z,59.50
2023-04-02T23:48:31.227Z,59.50
2023-04-02T23:51:07.148Z,59.40
2023-04-02T23:53:40.912Z,59.50
2023-04-02T23:56:15.023Z,59.50
2023-04-02T23:58:49.038Z,59.50
